CTV933 WIBB-WIII
Flight info
| Callsign | CTV933 |
|---|---|
| Flight time | 1h 20m |
| Altitude | 37000 |
| Route | ISROR T5 BUNIK |
| Aircraft | A320/M-SDE3FGHIRWY/LB1 |
Departure
| Time | 2026-05-07 08:06 |
|---|---|
| Airport | Sultan Syarif Kasim II International Airport / Roesmin Nurjadin AFB (WIBB) |
Arrival
| Time | 2026-05-07 09:27 |
|---|---|
| Airport | Soekarno-Hatta International Airport (WIII) |
| Time | Latitude | Longitude | Altitude | Speed | Heading |
|---|---|---|---|---|---|
| 2026-05-07 07:46 | 0.46328 | 101.44678 | 0 ft | 0 kts | 90° |
| 2026-05-07 07:57 | 0.46328 | 101.44657 | 74 ft | 4 kts | 88° |
| 2026-05-07 07:57 | 0.46327 | 101.44630 | 123 ft | 4 kts | 82° |
| 2026-05-07 07:57 | 0.46321 | 101.44604 | 122 ft | 4 kts | 64° |
| 2026-05-07 07:58 | 0.46306 | 101.44587 | 123 ft | 2 kts | 4° |
| 2026-05-07 07:58 | 0.46300 | 101.44587 | 124 ft | 0 kts | 2° |
| 2026-05-07 08:00 | 0.46308 | 101.44587 | 123 ft | 3 kts | 2° |
| 2026-05-07 08:01 | 0.46344 | 101.44588 | 126 ft | 6 kts | 2° |
| 2026-05-07 08:01 | 0.46383 | 101.44589 | 128 ft | 5 kts | 1° |
| 2026-05-07 08:01 | 0.46421 | 101.44590 | 128 ft | 8 kts | 2° |
| 2026-05-07 08:01 | 0.46467 | 101.44592 | 128 ft | 10 kts | 2° |
| 2026-05-07 08:02 | 0.46534 | 101.44594 | 128 ft | 9 kts | 1° |
| 2026-05-07 08:02 | 0.46602 | 101.44595 | 128 ft | 7 kts | 357° |
| 2026-05-07 08:02 | 0.46632 | 101.44566 | 127 ft | 6 kts | 284° |
| 2026-05-07 08:02 | 0.46633 | 101.44528 | 129 ft | 5 kts | 271° |
| 2026-05-07 08:03 | 0.46642 | 101.44483 | 125 ft | 7 kts | 307° |
| 2026-05-07 08:03 | 0.46688 | 101.44471 | 129 ft | 9 kts | 359° |
| 2026-05-07 08:03 | 0.46766 | 101.44472 | 130 ft | 12 kts | 2° |
| 2026-05-07 08:03 | 0.46846 | 101.44475 | 112 ft | 11 kts | 2° |
| 2026-05-07 08:04 | 0.46927 | 101.44477 | 129 ft | 12 kts | 1° |
| 2026-05-07 08:04 | 0.47003 | 101.44484 | 128 ft | 10 kts | 13° |
| 2026-05-07 08:04 | 0.47058 | 101.44505 | 125 ft | 5 kts | 12° |
| 2026-05-07 08:04 | 0.47079 | 101.44489 | 123 ft | 3 kts | 278° |
| 2026-05-07 08:05 | 0.47069 | 101.44483 | 126 ft | 2 kts | 203° |
| 2026-05-07 08:05 | 0.47061 | 101.44482 | 126 ft | 0 kts | 184° |
| 2026-05-07 08:05 | 0.46974 | 101.44478 | 128 ft | 43 kts | 182° |
| 2026-05-07 08:05 | 0.46429 | 101.44462 | 128 ft | 110 kts | 182° |
| 2026-05-07 08:06 | 0.45471 | 101.44435 | 129 ft | 162 kts | 181° |
| 2026-05-07 08:06 | 0.44301 | 101.44402 | 702 ft | 164 kts | 181° |
| 2026-05-07 08:06 | 0.43168 | 101.44358 | 1454 ft | 165 kts | 182° |
| 2026-05-07 08:06 | 0.41958 | 101.44459 | 1798 ft | 189 kts | 156° |
| 2026-05-07 08:07 | 0.40874 | 101.45346 | 1948 ft | 219 kts | 133° |
| 2026-05-07 08:07 | 0.39839 | 101.46586 | 2278 ft | 245 kts | 130° |
| 2026-05-07 08:07 | 0.38751 | 101.47957 | 2805 ft | 261 kts | 129° |
| 2026-05-07 08:07 | 0.37599 | 101.49406 | 3544 ft | 270 kts | 129° |
| 2026-05-07 08:08 | 0.36405 | 101.50881 | 4361 ft | 275 kts | 129° |
| 2026-05-07 08:08 | 0.35180 | 101.52360 | 5208 ft | 278 kts | 130° |
| 2026-05-07 08:08 | 0.33926 | 101.53850 | 6031 ft | 282 kts | 130° |
| 2026-05-07 08:08 | 0.32646 | 101.55355 | 6840 ft | 286 kts | 131° |
| 2026-05-07 08:09 | 0.31346 | 101.56874 | 7629 ft | 289 kts | 131° |
| 2026-05-07 08:09 | 0.30029 | 101.58411 | 8407 ft | 293 kts | 131° |
| 2026-05-07 08:09 | 0.28695 | 101.59969 | 9169 ft | 296 kts | 130° |
| 2026-05-07 08:09 | 0.27344 | 101.61551 | 9917 ft | 300 kts | 130° |
| 2026-05-07 08:10 | 0.25953 | 101.63175 | 10281 ft | 319 kts | 130° |
| 2026-05-07 08:10 | 0.24459 | 101.64911 | 10543 ft | 338 kts | 131° |
| 2026-05-07 08:10 | 0.22908 | 101.66712 | 11121 ft | 345 kts | 131° |
| 2026-05-07 08:10 | 0.21241 | 101.68456 | 11764 ft | 349 kts | 135° |
| 2026-05-07 08:11 | 0.19534 | 101.70136 | 12397 ft | 341 kts | 136° |
| 2026-05-07 08:11 | 0.17819 | 101.71777 | 13068 ft | 343 kts | 137° |
| 2026-05-07 08:11 | 0.16070 | 101.73434 | 13583 ft | 352 kts | 137° |
| 2026-05-07 08:11 | 0.14261 | 101.75146 | 14012 ft | 361 kts | 137° |
| 2026-05-07 08:12 | 0.12432 | 101.76883 | 14603 ft | 364 kts | 137° |
| 2026-05-07 08:12 | 0.10618 | 101.78616 | 15214 ft | 366 kts | 137° |
| 2026-05-07 08:12 | 0.08776 | 101.80387 | 15846 ft | 368 kts | 137° |
| 2026-05-07 08:12 | 0.06940 | 101.82169 | 16476 ft | 369 kts | 137° |
| 2026-05-07 08:13 | 0.05096 | 101.83964 | 17095 ft | 370 kts | 136° |
| 2026-05-07 08:13 | 0.03248 | 101.85764 | 17683 ft | 371 kts | 136° |
| 2026-05-07 08:13 | 0.01397 | 101.87564 | 18266 ft | 372 kts | 136° |
| 2026-05-07 08:13 | -0.00467 | 101.89374 | 18807 ft | 374 kts | 135° |
| 2026-05-07 08:14 | -0.02342 | 101.91192 | 19300 ft | 377 kts | 135° |
| 2026-05-07 08:14 | -0.04239 | 101.93031 | 19757 ft | 381 kts | 135° |
| 2026-05-07 08:14 | -0.06129 | 101.94863 | 20181 ft | 385 kts | 134° |
| 2026-05-07 08:14 | -0.08087 | 101.96763 | 20608 ft | 389 kts | 134° |
| 2026-05-07 08:15 | -0.10013 | 101.98633 | 21031 ft | 393 kts | 134° |
| 2026-05-07 08:15 | -0.12007 | 102.00571 | 21470 ft | 396 kts | 134° |
| 2026-05-07 08:15 | -0.13959 | 102.02469 | 21882 ft | 399 kts | 134° |
| 2026-05-07 08:15 | -0.15957 | 102.04407 | 22292 ft | 401 kts | 134° |
| 2026-05-07 08:16 | -0.17970 | 102.06359 | 22699 ft | 404 kts | 134° |
| 2026-05-07 08:16 | -0.19997 | 102.08325 | 23084 ft | 407 kts | 134° |
| 2026-05-07 08:16 | -0.22032 | 102.10300 | 23462 ft | 410 kts | 134° |
| 2026-05-07 08:16 | -0.24083 | 102.12292 | 23833 ft | 412 kts | 134° |
| 2026-05-07 08:17 | -0.26155 | 102.14302 | 24199 ft | 415 kts | 134° |
| 2026-05-07 08:17 | -0.28234 | 102.16316 | 24561 ft | 417 kts | 134° |
| 2026-05-07 08:17 | -0.30327 | 102.18343 | 24924 ft | 419 kts | 134° |
| 2026-05-07 08:17 | -0.32429 | 102.20380 | 25286 ft | 421 kts | 134° |
| 2026-05-07 08:18 | -0.34511 | 102.22396 | 25622 ft | 423 kts | 135° |
| 2026-05-07 08:18 | -0.36634 | 102.24453 | 25971 ft | 425 kts | 135° |
| 2026-05-07 08:18 | -0.38764 | 102.26522 | 26310 ft | 427 kts | 135° |
| 2026-05-07 08:18 | -0.40895 | 102.28597 | 26639 ft | 429 kts | 135° |
| 2026-05-07 08:19 | -0.43042 | 102.30686 | 26945 ft | 431 kts | 135° |
| 2026-05-07 08:19 | -0.45200 | 102.32781 | 27242 ft | 433 kts | 135° |
| 2026-05-07 08:19 | -0.47369 | 102.34884 | 27508 ft | 436 kts | 135° |
| 2026-05-07 08:19 | -0.49551 | 102.36997 | 27775 ft | 438 kts | 135° |
| 2026-05-07 08:20 | -0.51748 | 102.39126 | 28043 ft | 440 kts | 135° |
| 2026-05-07 08:20 | -0.53925 | 102.41235 | 28315 ft | 442 kts | 136° |
| 2026-05-07 08:20 | -0.56139 | 102.43384 | 28577 ft | 444 kts | 136° |
| 2026-05-07 08:20 | -0.58366 | 102.45547 | 28831 ft | 447 kts | 136° |
| 2026-05-07 08:21 | -0.60601 | 102.47719 | 29080 ft | 449 kts | 136° |
| 2026-05-07 08:21 | -0.62853 | 102.49912 | 29333 ft | 451 kts | 136° |
| 2026-05-07 08:21 | -0.65108 | 102.52104 | 29555 ft | 454 kts | 136° |
| 2026-05-07 08:21 | -0.67380 | 102.54309 | 29795 ft | 456 kts | 136° |
| 2026-05-07 08:22 | -0.69661 | 102.56519 | 30031 ft | 458 kts | 136° |
| 2026-05-07 08:22 | -0.71956 | 102.58740 | 30231 ft | 460 kts | 136° |
| 2026-05-07 08:22 | -0.74265 | 102.60975 | 30452 ft | 462 kts | 136° |
| 2026-05-07 08:22 | -0.76574 | 102.63215 | 30672 ft | 463 kts | 136° |
| 2026-05-07 08:23 | -0.78888 | 102.65465 | 30904 ft | 465 kts | 136° |
| 2026-05-07 08:23 | -0.81212 | 102.67724 | 31120 ft | 466 kts | 136° |
| 2026-05-07 08:23 | -0.83510 | 102.69953 | 31407 ft | 465 kts | 136° |
| 2026-05-07 08:23 | -0.85829 | 102.72201 | 31735 ft | 464 kts | 136° |
| 2026-05-07 08:24 | -0.88132 | 102.74433 | 32190 ft | 459 kts | 136° |
| 2026-05-07 08:24 | -0.90448 | 102.76679 | 32553 ft | 457 kts | 135° |
| 2026-05-07 08:24 | -0.92696 | 102.78863 | 32850 ft | 457 kts | 135° |
| 2026-05-07 08:24 | -0.95004 | 102.81108 | 33128 ft | 457 kts | 135° |
| 2026-05-07 08:25 | -0.97250 | 102.83291 | 33400 ft | 456 kts | 135° |
| 2026-05-07 08:25 | -0.99522 | 102.85498 | 33666 ft | 456 kts | 135° |
| 2026-05-07 08:25 | -1.01799 | 102.87706 | 33918 ft | 456 kts | 135° |
| 2026-05-07 08:25 | -1.04073 | 102.89910 | 34170 ft | 456 kts | 135° |
| 2026-05-07 08:26 | -1.08647 | 102.94343 | 34658 ft | 455 kts | 135° |
| 2026-05-07 08:26 | -1.10889 | 102.96521 | 34878 ft | 455 kts | 135° |
| 2026-05-07 08:26 | -1.13182 | 102.98750 | 35107 ft | 454 kts | 135° |
| 2026-05-07 08:27 | -1.15415 | 103.00926 | 35323 ft | 454 kts | 135° |
| 2026-05-07 08:27 | -1.17675 | 103.03125 | 35537 ft | 453 kts | 135° |
| 2026-05-07 08:27 | -1.19940 | 103.05321 | 35733 ft | 453 kts | 136° |
| 2026-05-07 08:27 | -1.22205 | 103.07514 | 35923 ft | 453 kts | 135° |
| 2026-05-07 08:28 | -1.24467 | 103.09710 | 36112 ft | 453 kts | 135° |
| 2026-05-07 08:28 | -1.26725 | 103.11904 | 36299 ft | 453 kts | 136° |
| 2026-05-07 08:28 | -1.28986 | 103.14098 | 36465 ft | 453 kts | 136° |
| 2026-05-07 08:28 | -1.31244 | 103.16289 | 36625 ft | 453 kts | 135° |
| 2026-05-07 08:29 | -1.33502 | 103.18479 | 36775 ft | 453 kts | 135° |
| 2026-05-07 08:29 | -1.35760 | 103.20668 | 36812 ft | 451 kts | 135° |
| 2026-05-07 08:29 | -1.40261 | 103.25040 | 36810 ft | 452 kts | 135° |
| 2026-05-07 08:30 | -1.44765 | 103.29419 | 36811 ft | 452 kts | 135° |
| 2026-05-07 08:30 | -1.49274 | 103.33796 | 36810 ft | 452 kts | 135° |
| 2026-05-07 08:31 | -1.53777 | 103.38175 | 36811 ft | 451 kts | 135° |
| 2026-05-07 08:31 | -1.58281 | 103.42551 | 36805 ft | 453 kts | 135° |
| 2026-05-07 08:32 | -1.62822 | 103.46953 | 36785 ft | 456 kts | 135° |
| 2026-05-07 08:32 | -1.67390 | 103.51392 | 36786 ft | 459 kts | 135° |
| 2026-05-07 08:33 | -1.71979 | 103.55849 | 36791 ft | 461 kts | 135° |
| 2026-05-07 08:33 | -1.76583 | 103.60323 | 36799 ft | 462 kts | 135° |
| 2026-05-07 08:34 | -1.81191 | 103.64802 | 36806 ft | 462 kts | 135° |
| 2026-05-07 08:34 | -1.85802 | 103.69285 | 36817 ft | 463 kts | 135° |
| 2026-05-07 08:35 | -1.90424 | 103.73767 | 36819 ft | 463 kts | 135° |
| 2026-05-07 08:35 | -1.95040 | 103.78249 | 36824 ft | 463 kts | 135° |
| 2026-05-07 08:36 | -1.99657 | 103.82736 | 36828 ft | 463 kts | 135° |
| 2026-05-07 08:36 | -2.04269 | 103.87228 | 36827 ft | 463 kts | 135° |
| 2026-05-07 08:37 | -2.08876 | 103.91715 | 36821 ft | 463 kts | 135° |
| 2026-05-07 08:37 | -2.13495 | 103.96202 | 36828 ft | 463 kts | 135° |
| 2026-05-07 08:38 | -2.18107 | 104.00683 | 36821 ft | 462 kts | 135° |
| 2026-05-07 08:38 | -2.22719 | 104.05165 | 36817 ft | 462 kts | 135° |
| 2026-05-07 08:39 | -2.27333 | 104.09652 | 36809 ft | 463 kts | 135° |
| 2026-05-07 08:39 | -2.31954 | 104.14153 | 36802 ft | 464 kts | 135° |
| 2026-05-07 08:40 | -2.36579 | 104.18649 | 36805 ft | 464 kts | 135° |
| 2026-05-07 08:40 | -2.41205 | 104.23152 | 36806 ft | 464 kts | 135° |
| 2026-05-07 08:41 | -2.45061 | 104.26894 | 36811 ft | 465 kts | 135° |
| 2026-05-07 08:41 | -2.49695 | 104.31398 | 36813 ft | 465 kts | 135° |
| 2026-05-07 08:42 | -2.54325 | 104.35914 | 36819 ft | 465 kts | 135° |
| 2026-05-07 08:42 | -2.58958 | 104.40420 | 36816 ft | 465 kts | 135° |
| 2026-05-07 08:43 | -2.63595 | 104.44927 | 36817 ft | 465 kts | 135° |
| 2026-05-07 08:43 | -2.68229 | 104.49437 | 36819 ft | 465 kts | 135° |
| 2026-05-07 08:44 | -2.72867 | 104.53947 | 36821 ft | 465 kts | 135° |
| 2026-05-07 08:44 | -2.77505 | 104.58462 | 36822 ft | 465 kts | 135° |
| 2026-05-07 08:45 | -2.82140 | 104.62981 | 36831 ft | 465 kts | 135° |
| 2026-05-07 08:45 | -2.86781 | 104.67501 | 36822 ft | 465 kts | 135° |
| 2026-05-07 08:46 | -2.91420 | 104.72012 | 36821 ft | 465 kts | 135° |
| 2026-05-07 08:46 | -2.96060 | 104.76529 | 36831 ft | 465 kts | 135° |
| 2026-05-07 08:47 | -3.00702 | 104.81055 | 36828 ft | 465 kts | 135° |
| 2026-05-07 08:47 | -3.05320 | 104.85560 | 36828 ft | 465 kts | 135° |
| 2026-05-07 08:48 | -3.09958 | 104.90083 | 36820 ft | 465 kts | 135° |
| 2026-05-07 08:48 | -3.14601 | 104.94603 | 36819 ft | 466 kts | 136° |
| 2026-05-07 08:49 | -3.19251 | 104.99131 | 36815 ft | 466 kts | 135° |
| 2026-05-07 08:49 | -3.23904 | 105.03666 | 36816 ft | 467 kts | 135° |
| 2026-05-07 08:50 | -3.28552 | 105.08201 | 36817 ft | 467 kts | 136° |
| 2026-05-07 08:50 | -3.33185 | 105.12712 | 36819 ft | 467 kts | 136° |
| 2026-05-07 08:51 | -3.37837 | 105.17253 | 36813 ft | 466 kts | 135° |
| 2026-05-07 08:51 | -3.42488 | 105.21797 | 36808 ft | 467 kts | 136° |
| 2026-05-07 08:52 | -3.47146 | 105.26334 | 36808 ft | 467 kts | 135° |
| 2026-05-07 08:52 | -3.51802 | 105.30874 | 36812 ft | 467 kts | 135° |
| 2026-05-07 08:53 | -3.56428 | 105.35390 | 36811 ft | 467 kts | 135° |
| 2026-05-07 08:53 | -3.61086 | 105.39935 | 36818 ft | 467 kts | 135° |
| 2026-05-07 08:54 | -3.65734 | 105.44472 | 36836 ft | 466 kts | 135° |
| 2026-05-07 08:54 | -3.70379 | 105.49000 | 36832 ft | 465 kts | 135° |
| 2026-05-07 08:55 | -3.75016 | 105.53530 | 36834 ft | 465 kts | 135° |
| 2026-05-07 08:55 | -3.79644 | 105.58052 | 36832 ft | 464 kts | 135° |
| 2026-05-07 08:56 | -3.84265 | 105.62566 | 36832 ft | 464 kts | 135° |
| 2026-05-07 08:56 | -3.88881 | 105.67083 | 36830 ft | 464 kts | 135° |
| 2026-05-07 08:57 | -3.93472 | 105.71578 | 36829 ft | 464 kts | 135° |
| 2026-05-07 08:57 | -3.98090 | 105.76094 | 36831 ft | 464 kts | 135° |
| 2026-05-07 08:58 | -4.02714 | 105.80609 | 36829 ft | 464 kts | 135° |
| 2026-05-07 08:58 | -4.07338 | 105.85124 | 36827 ft | 464 kts | 135° |
| 2026-05-07 08:59 | -4.11954 | 105.89634 | 36829 ft | 464 kts | 135° |
| 2026-05-07 08:59 | -4.16569 | 105.94153 | 36831 ft | 463 kts | 135° |
| 2026-05-07 09:00 | -4.21179 | 105.98661 | 36829 ft | 463 kts | 136° |
| 2026-05-07 09:00 | -4.25790 | 106.03168 | 36829 ft | 463 kts | 136° |
| 2026-05-07 09:01 | -4.30401 | 106.07686 | 36818 ft | 464 kts | 136° |
| 2026-05-07 09:01 | -4.35020 | 106.12220 | 36818 ft | 465 kts | 136° |
| 2026-05-07 09:02 | -4.39647 | 106.16753 | 36828 ft | 465 kts | 136° |
| 2026-05-07 09:02 | -4.44286 | 106.21288 | 36828 ft | 466 kts | 136° |
| 2026-05-07 09:03 | -4.48920 | 106.25824 | 36829 ft | 466 kts | 136° |
| 2026-05-07 09:03 | -4.53560 | 106.30368 | 36828 ft | 466 kts | 136° |
| 2026-05-07 09:04 | -4.58200 | 106.34913 | 36828 ft | 466 kts | 136° |
| 2026-05-07 09:04 | -4.62841 | 106.39456 | 36829 ft | 467 kts | 136° |
| 2026-05-07 09:05 | -4.67492 | 106.43999 | 36828 ft | 467 kts | 136° |
| 2026-05-07 09:05 | -4.72135 | 106.48557 | 36828 ft | 467 kts | 136° |
| 2026-05-07 09:06 | -4.76773 | 106.53120 | 36831 ft | 467 kts | 136° |
| 2026-05-07 09:06 | -4.81431 | 106.57689 | 36311 ft | 468 kts | 136° |
| 2026-05-07 09:07 | -4.83893 | 106.59798 | 35766 ft | 464 kts | 147° |
| 2026-05-07 09:07 | -4.86760 | 106.61255 | 35043 ft | 463 kts | 162° |
| 2026-05-07 09:07 | -4.89867 | 106.61914 | 34246 ft | 464 kts | 176° |
| 2026-05-07 09:07 | -4.93091 | 106.61740 | 33319 ft | 468 kts | 191° |
| 2026-05-07 09:08 | -4.96222 | 106.60815 | 32456 ft | 470 kts | 198° |
| 2026-05-07 09:08 | -4.99327 | 106.59777 | 31608 ft | 471 kts | 197° |
| 2026-05-07 09:08 | -5.02477 | 106.58732 | 30843 ft | 470 kts | 197° |
| 2026-05-07 09:08 | -5.05541 | 106.57721 | 30096 ft | 469 kts | 197° |
| 2026-05-07 09:09 | -5.08631 | 106.56702 | 29350 ft | 467 kts | 196° |
| 2026-05-07 09:09 | -5.11708 | 106.55688 | 28598 ft | 464 kts | 196° |
| 2026-05-07 09:09 | -5.14792 | 106.54742 | 27846 ft | 462 kts | 194° |
| 2026-05-07 09:09 | -5.17888 | 106.53894 | 27086 ft | 460 kts | 193° |
| 2026-05-07 09:10 | -5.20980 | 106.53109 | 26342 ft | 458 kts | 192° |
| 2026-05-07 09:10 | -5.24066 | 106.52351 | 25592 ft | 456 kts | 192° |
| 2026-05-07 09:10 | -5.27141 | 106.51595 | 24834 ft | 454 kts | 192° |
| 2026-05-07 09:10 | -5.30200 | 106.50827 | 24092 ft | 452 kts | 193° |
| 2026-05-07 09:11 | -5.33237 | 106.50043 | 23335 ft | 450 kts | 193° |
| 2026-05-07 09:11 | -5.36253 | 106.49249 | 22583 ft | 448 kts | 193° |
| 2026-05-07 09:11 | -5.39257 | 106.48449 | 21828 ft | 446 kts | 193° |
| 2026-05-07 09:11 | -5.42260 | 106.47648 | 21070 ft | 444 kts | 193° |
| 2026-05-07 09:12 | -5.45240 | 106.46857 | 20326 ft | 443 kts | 193° |
| 2026-05-07 09:12 | -5.48212 | 106.46074 | 19574 ft | 441 kts | 193° |
| 2026-05-07 09:12 | -5.51132 | 106.45308 | 18811 ft | 425 kts | 193° |
| 2026-05-07 09:12 | -5.53945 | 106.44566 | 18062 ft | 410 kts | 193° |
| 2026-05-07 09:13 | -5.56660 | 106.43850 | 17312 ft | 397 kts | 193° |
| 2026-05-07 09:13 | -5.59297 | 106.43156 | 16563 ft | 387 kts | 193° |
| 2026-05-07 09:13 | -5.61867 | 106.42480 | 15806 ft | 378 kts | 193° |
| 2026-05-07 09:13 | -5.64383 | 106.41817 | 15062 ft | 370 kts | 193° |
| 2026-05-07 09:14 | -5.66857 | 106.41163 | 14314 ft | 369 kts | 193° |
| 2026-05-07 09:14 | -5.69364 | 106.40505 | 13576 ft | 375 kts | 193° |
| 2026-05-07 09:14 | -5.71890 | 106.39844 | 12948 ft | 376 kts | 193° |
| 2026-05-07 09:14 | -5.74417 | 106.39183 | 12318 ft | 376 kts | 193° |
| 2026-05-07 09:15 | -5.76944 | 106.38520 | 11685 ft | 375 kts | 193° |
| 2026-05-07 09:15 | -5.79459 | 106.37858 | 11260 ft | 369 kts | 193° |
| 2026-05-07 09:15 | -5.81902 | 106.37211 | 11008 ft | 358 kts | 193° |
| 2026-05-07 09:15 | -5.84274 | 106.36583 | 10757 ft | 347 kts | 193° |
| 2026-05-07 09:16 | -5.86583 | 106.35976 | 10506 ft | 339 kts | 193° |
| 2026-05-07 09:16 | -5.88832 | 106.35388 | 10256 ft | 330 kts | 193° |
| 2026-05-07 09:16 | -5.91034 | 106.34815 | 10008 ft | 323 kts | 193° |
| 2026-05-07 09:16 | -5.93188 | 106.34251 | 9755 ft | 316 kts | 193° |
| 2026-05-07 09:17 | -5.95294 | 106.33698 | 9502 ft | 309 kts | 193° |
| 2026-05-07 09:17 | -5.97356 | 106.33159 | 9249 ft | 303 kts | 193° |
| 2026-05-07 09:17 | -5.99381 | 106.32630 | 9003 ft | 297 kts | 193° |
| 2026-05-07 09:17 | -6.01361 | 106.32111 | 8755 ft | 291 kts | 193° |
| 2026-05-07 09:18 | -6.03312 | 106.31606 | 8502 ft | 287 kts | 191° |
| 2026-05-07 09:18 | -6.05276 | 106.31495 | 8252 ft | 281 kts | 170° |
| 2026-05-07 09:18 | -6.07202 | 106.31822 | 8001 ft | 280 kts | 168° |
| 2026-05-07 09:18 | -6.09125 | 106.32166 | 7575 ft | 282 kts | 168° |
| 2026-05-07 09:19 | -6.11065 | 106.32513 | 7097 ft | 284 kts | 168° |
| 2026-05-07 09:19 | -6.12962 | 106.32849 | 6622 ft | 276 kts | 168° |
| 2026-05-07 09:19 | -6.14823 | 106.33176 | 6173 ft | 267 kts | 168° |
| 2026-05-07 09:19 | -6.16630 | 106.33493 | 5717 ft | 259 kts | 168° |
| 2026-05-07 09:20 | -6.18389 | 106.33804 | 5273 ft | 255 kts | 167° |
| 2026-05-07 09:20 | -6.20074 | 106.34324 | 4823 ft | 254 kts | 147° |
| 2026-05-07 09:20 | -6.21346 | 106.35517 | 4362 ft | 251 kts | 122° |
| 2026-05-07 09:20 | -6.22276 | 106.37005 | 4034 ft | 248 kts | 120° |
| 2026-05-07 09:21 | -6.23161 | 106.38434 | 3997 ft | 232 kts | 118° |
| 2026-05-07 09:21 | -6.23650 | 106.39853 | 3997 ft | 220 kts | 93° |
| 2026-05-07 09:21 | -6.23437 | 106.41353 | 3899 ft | 218 kts | 69° |
| 2026-05-07 09:21 | -6.23069 | 106.42265 | 3790 ft | 214 kts | 68° |
| 2026-05-07 09:22 | -6.22338 | 106.44071 | 3596 ft | 206 kts | 68° |
| 2026-05-07 09:22 | -6.21986 | 106.44951 | 3511 ft | 202 kts | 69° |
| 2026-05-07 09:22 | -6.21470 | 106.46246 | 3387 ft | 197 kts | 68° |
| 2026-05-07 09:22 | -6.20964 | 106.47517 | 3256 ft | 195 kts | 69° |
| 2026-05-07 09:23 | -6.20462 | 106.48778 | 3177 ft | 194 kts | 68° |
| 2026-05-07 09:23 | -6.19960 | 106.50041 | 2991 ft | 194 kts | 69° |
| 2026-05-07 09:23 | -6.19455 | 106.51308 | 2754 ft | 197 kts | 68° |
| 2026-05-07 09:23 | -6.18944 | 106.52592 | 2496 ft | 198 kts | 68° |
| 2026-05-07 09:24 | -6.18428 | 106.53887 | 2232 ft | 198 kts | 69° |
| 2026-05-07 09:24 | -6.17925 | 106.55151 | 1971 ft | 192 kts | 68° |
| 2026-05-07 09:24 | -6.17443 | 106.56361 | 1738 ft | 183 kts | 68° |
| 2026-05-07 09:24 | -6.16998 | 106.57483 | 1502 ft | 173 kts | 68° |
| 2026-05-07 09:25 | -6.16566 | 106.58566 | 1280 ft | 160 kts | 68° |
| 2026-05-07 09:25 | -6.16172 | 106.59554 | 1076 ft | 144 kts | 68° |
| 2026-05-07 09:25 | -6.15811 | 106.60461 | 885 ft | 137 kts | 67° |
| 2026-05-07 09:25 | -6.15459 | 106.61343 | 699 ft | 134 kts | 68° |
| 2026-05-07 09:26 | -6.15114 | 106.62208 | 527 ft | 134 kts | 68° |
| 2026-05-07 09:26 | -6.14765 | 106.63074 | 352 ft | 134 kts | 68° |
| 2026-05-07 09:26 | -6.14421 | 106.63943 | 169 ft | 133 kts | 68° |
| 2026-05-07 09:26 | -6.14079 | 106.64805 | 46 ft | 128 kts | 68° |
| 2026-05-07 09:27 | -6.13796 | 106.65509 | 39 ft | 87 kts | 68° |
| 2026-05-07 09:27 | -6.13633 | 106.65921 | 39 ft | 42 kts | 68° |
| 2026-05-07 09:27 | -6.13484 | 106.66214 | 40 ft | 18 kts | 47° |
| 2026-05-07 09:28 | -6.13393 | 106.66288 | 40 ft | 13 kts | 37° |
| 2026-05-07 09:28 | -6.13335 | 106.66306 | 40 ft | 7 kts | 349° |
| 2026-05-07 09:28 | -6.13304 | 106.66268 | 39 ft | 9 kts | 278° |
| 2026-05-07 09:28 | -6.13329 | 106.66194 | 37 ft | 11 kts | 248° |
| 2026-05-07 09:29 | -6.13359 | 106.66119 | 39 ft | 13 kts | 248° |
| 2026-05-07 09:29 | -6.13400 | 106.66016 | 38 ft | 16 kts | 249° |
| 2026-05-07 09:29 | -6.13436 | 106.65927 | 38 ft | 13 kts | 248° |
| 2026-05-07 09:29 | -6.13469 | 106.65845 | 38 ft | 12 kts | 248° |
| 2026-05-07 09:30 | -6.13506 | 106.65750 | 37 ft | 16 kts | 248° |
| 2026-05-07 09:30 | -6.13546 | 106.65652 | 37 ft | 14 kts | 248° |
| 2026-05-07 09:30 | -6.13581 | 106.65563 | 38 ft | 14 kts | 248° |
| 2026-05-07 09:30 | -6.13618 | 106.65472 | 37 ft | 12 kts | 248° |
| 2026-05-07 09:31 | -6.13644 | 106.65406 | 37 ft | 7 kts | 248° |
| 2026-05-07 09:31 | -6.13648 | 106.65396 | 37 ft | 0 kts | 248° |
| 2026-05-07 09:31 | -6.13650 | 106.65390 | 38 ft | 4 kts | 248° |
| 2026-05-07 09:32 | -6.13674 | 106.65331 | 38 ft | 13 kts | 248° |
| 2026-05-07 09:32 | -6.13706 | 106.65251 | 38 ft | 12 kts | 248° |
| 2026-05-07 09:32 | -6.13735 | 106.65179 | 39 ft | 11 kts | 248° |
| 2026-05-07 09:32 | -6.13754 | 106.65130 | 39 ft | 0 kts | 248° |
| 2026-05-07 09:33 | -6.13757 | 106.65122 | 37 ft | 4 kts | 248° |
| 2026-05-07 09:33 | -6.13756 | 106.65074 | 38 ft | 8 kts | 296° |
| 2026-05-07 09:34 | -6.13705 | 106.65043 | 37 ft | 9 kts | 338° |
| 2026-05-07 09:34 | -6.13652 | 106.65022 | 36 ft | 8 kts | 339° |
| 2026-05-07 09:34 | -6.13572 | 106.64990 | 37 ft | 15 kts | 339° |
| 2026-05-07 09:34 | -6.13467 | 106.64949 | 38 ft | 17 kts | 338° |
| 2026-05-07 09:35 | -6.13347 | 106.64901 | 38 ft | 20 kts | 338° |
| 2026-05-07 09:35 | -6.13243 | 106.64860 | 38 ft | 15 kts | 338° |
| 2026-05-07 09:35 | -6.13176 | 106.64840 | 38 ft | 8 kts | 4° |
| 2026-05-07 09:35 | -6.13134 | 106.64878 | 38 ft | 9 kts | 65° |
| 2026-05-07 09:36 | -6.13107 | 106.64947 | 38 ft | 11 kts | 69° |
| 2026-05-07 09:36 | -6.13096 | 106.65017 | 36 ft | 10 kts | 111° |
| 2026-05-07 09:36 | -6.13151 | 106.65054 | 38 ft | 12 kts | 156° |
| 2026-05-07 09:36 | -6.13241 | 106.65095 | 38 ft | 12 kts | 152° |
| 2026-05-07 09:37 | -6.13289 | 106.65143 | 38 ft | 10 kts | 126° |
| 2026-05-07 09:37 | -6.13331 | 106.65198 | 38 ft | 8 kts | 130° |
| 2026-05-07 09:37 | -6.13336 | 106.65240 | 38 ft | 7 kts | 79° |
| 2026-05-07 09:37 | -6.13317 | 106.65295 | 38 ft | 10 kts | 68° |
| 2026-05-07 09:38 | -6.13288 | 106.65370 | 38 ft | 10 kts | 69° |
| 2026-05-07 09:38 | -6.13261 | 106.65404 | 38 ft | 5 kts | 19° |
| 2026-05-07 09:38 | -6.13235 | 106.65397 | 38 ft | 3 kts | 335° |
| 2026-05-07 09:38 | -6.13216 | 106.65388 | 38 ft | 2 kts | 333° |
| 2026-05-07 09:39 | -6.13210 | 106.65385 | 38 ft | 0 kts | 334° |